Time;durP1;ratioP1;P1;durP2;ratioP2;P2;SDS_P1;SDS_P2;PMS_P1;PMS_P2;Temp;Humidity;BMP_temperature;BMP_pressure;BME280_temperature;BME280_humidity;BME280_pressure;Samples;Min_cycle;Max_cycle;Signal;HPM_P1;HPM_P2
2022/03/08 00:01:52;;;;;;;33.92;18.88;;;4.50;83.10;;;;;;5087363;28;20043;-77
2022/03/08 00:04:18;;;;;;;37.08;20.52;;;4.60;83.10;;;;;;5091498;28;20028;-76
2022/03/08 00:06:43;;;;;;;39.33;21.08;;;4.60;83.00;;;;;;5095518;28;20121;-77
2022/03/08 00:09:09;;;;;;;30.55;18.38;;;4.60;83.10;;;;;;5086629;28;20031;-78
2022/03/08 00:11:35;;;;;;;36.22;19.50;;;4.50;83.20;;;;;;5089314;28;20043;-77
2022/03/08 00:14:01;;;;;;;32.60;18.35;;;4.50;82.70;;;;;;5088412;28;20028;-76
2022/03/08 00:16:26;;;;;;;33.83;18.88;;;4.60;83.00;;;;;;5089595;28;20457;-76
2022/03/08 00:18:52;;;;;;;32.75;19.17;;;4.50;83.30;;;;;;5085816;28;20032;-77
2022/03/08 00:21:18;;;;;;;36.65;20.92;;;4.50;82.90;;;;;;5089622;28;20119;-77
2022/03/08 00:23:44;;;;;;;31.73;20.30;;;4.50;83.50;;;;;;5083890;28;20044;-77
2022/03/08 00:26:10;;;;;;;40.80;21.55;;;4.30;83.90;;;;;;5091020;28;20028;-74
2022/03/08 00:28:36;;;;;;;30.10;18.23;;;4.20;84.20;;;;;;5085064;28;20041;-77
2022/03/08 00:31:02;;;;;;;36.92;20.25;;;4.30;84.00;;;;;;5084768;28;20032;-77
2022/03/08 00:33:28;;;;;;;34.50;20.92;;;4.30;83.50;;;;;;5087466;28;20544;-77
2022/03/08 00:35:54;;;;;;;29.75;18.60;;;4.40;83.10;;;;;;5089313;28;20032;-76
2022/03/08 00:38:20;;;;;;;33.17;19.30;;;4.40;83.80;;;;;;5087810;28;20118;-77
2022/03/08 00:40:46;;;;;;;34.22;19.17;;;4.30;84.00;;;;;;5085285;28;20024;-77
2022/03/08 00:43:12;;;;;;;38.15;23.27;;;4.30;84.00;;;;;;5090671;28;20051;-77
2022/03/08 00:45:38;;;;;;;35.17;20.33;;;4.40;83.60;;;;;;5087420;28;20036;-76
2022/03/08 00:48:05;;;;;;;35.10;20.00;;;4.40;83.50;;;;;;5085347;28;20038;-76
2022/03/08 00:50:31;;;;;;;35.92;19.23;;;4.30;83.00;;;;;;5088122;28;20036;-77
2022/03/08 00:52:58;;;;;;;35.50;21.35;;;4.50;83.30;;;;;;5088955;28;20457;-77
2022/03/08 00:55:28;;;;;;;35.78;20.13;;;4.40;82.90;;;;;;5086677;28;20409;-76
2022/03/08 00:57:54;;;;;;;32.58;19.08;;;4.40;82.80;;;;;;5086498;28;20024;-77
2022/03/08 01:00:22;;;;;;;32.22;18.63;;;4.20;83.30;;;;;;5088644;28;20405;-76
2022/03/08 01:02:48;;;;;;;35.97;21.58;;;4.10;83.40;;;;;;5087457;28;20444;-77
2022/03/08 01:05:15;;;;;;;34.75;18.65;;;4.10;83.10;;;;;;5085719;28;20386;-76
2022/03/08 01:07:41;;;;;;;33.30;19.30;;;4.10;82.50;;;;;;5083692;28;20102;-77
2022/03/08 01:10:10;;;;;;;30.77;18.15;;;4.10;82.30;;;;;;5087758;28;20464;-77
2022/03/08 01:12:36;;;;;;;29.90;18.10;;;4.10;82.40;;;;;;5087989;28;20032;-76
2022/03/08 01:15:02;;;;;;;32.97;18.27;;;4.10;82.10;;;;;;5086497;28;20024;-76
2022/03/08 01:17:28;;;;;;;35.85;19.35;;;4.10;82.00;;;;;;5087760;28;20036;-76
2022/03/08 01:19:54;;;;;;;29.38;17.23;;;4.20;80.90;;;;;;5086731;28;20032;-76
2022/03/08 01:22:19;;;;;;;30.60;18.35;;;4.10;82.30;;;;;;5087970;28;20040;-76
2022/03/08 01:24:45;;;;;;;34.35;18.40;;;4.10;82.00;;;;;;5086309;28;20024;-77
2022/03/08 01:27:11;;;;;;;28.55;17.17;;;4.20;81.50;;;;;;5087087;28;20035;-76
2022/03/08 01:29:37;;;;;;;33.33;18.77;;;4.20;80.60;;;;;;5088936;28;20040;-76
2022/03/08 01:32:03;;;;;;;31.45;18.30;;;4.20;81.00;;;;;;5084213;28;20028;-76
2022/03/08 01:34:29;;;;;;;30.75;16.58;;;4.20;81.10;;;;;;5088556;28;20035;-76
2022/03/08 01:36:55;;;;;;;32.33;18.23;;;4.20;81.00;;;;;;5087433;28;20032;-76
2022/03/08 01:39:21;;;;;;;35.42;18.13;;;4.30;80.70;;;;;;5086850;28;20043;-77
2022/03/08 01:41:47;;;;;;;30.77;17.52;;;4.30;80.30;;;;;;5088079;28;20474;-76
2022/03/08 01:44:13;;;;;;;33.33;17.75;;;4.30;80.50;;;;;;5086623;28;20035;-76
2022/03/08 01:46:40;;;;;;;32.90;17.75;;;4.30;80.10;;;;;;5085576;28;20024;-76
2022/03/08 01:49:07;;;;;;;27.95;15.98;;;4.30;80.10;;;;;;5087150;28;20032;-76
2022/03/08 01:51:34;;;;;;;28.75;17.58;;;4.40;79.80;;;;;;5086112;28;20082;-76
2022/03/08 01:54:00;;;;;;;28.00;17.33;;;4.30;80.00;;;;;;5088755;28;20031;-76
2022/03/08 01:56:26;;;;;;;27.15;15.70;;;4.20;80.20;;;;;;5080229;28;20624;-76
2022/03/08 01:58:51;;;;;;;30.00;16.45;;;4.20;80.10;;;;;;5090545;28;20028;-77
2022/03/08 02:01:17;;;;;;;31.23;16.55;;;4.20;80.40;;;;;;5085645;28;20422;-76
2022/03/08 02:03:42;;;;;;;27.58;16.83;;;4.20;79.60;;;;;;5088209;28;20568;-76
2022/03/08 02:06:08;;;;;;;28.05;16.05;;;4.30;79.70;;;;;;5086965;28;20107;-76
2022/03/08 02:08:34;;;;;;;31.05;17.80;;;4.30;79.80;;;;;;5093587;28;20122;-76
2022/03/08 02:10:59;;;;;;;26.88;16.42;;;4.30;79.90;;;;;;5091700;28;20350;-77
2022/03/08 02:13:27;;;;;;;29.48;16.92;;;4.20;80.10;;;;;;5087010;28;20342;-76
2022/03/08 02:15:53;;;;;;;27.63;14.95;;;4.20;80.30;;;;;;5092252;28;20485;-76
2022/03/08 02:18:19;;;;;;;29.30;15.95;;;4.20;80.10;;;;;;5090634;28;20020;-76
2022/03/08 02:20:45;;;;;;;28.98;16.58;;;4.20;80.00;;;;;;5088288;28;20028;-77
2022/03/08 02:23:11;;;;;;;30.75;17.92;;;4.30;80.20;;;;;;5092488;28;20040;-76
2022/03/08 02:25:37;;;;;;;26.67;16.73;;;4.30;80.50;;;;;;5089194;28;20036;-76
2022/03/08 02:28:03;;;;;;;28.88;16.98;;;4.30;79.90;;;;;;5089569;28;20515;-76
2022/03/08 02:30:29;;;;;;;30.90;17.33;;;4.20;79.80;;;;;;5083041;28;20170;-76
2022/03/08 02:32:55;;;;;;;29.48;17.30;;;4.30;80.00;;;;;;5091712;28;20127;-77
2022/03/08 02:35:24;;;;;;;29.27;16.10;;;4.30;79.90;;;;;;5091033;28;20028;-76
2022/03/08 02:37:55;;;;;;;30.92;17.35;;;4.20;80.00;;;;;;5092217;28;20020;-76
2022/03/08 02:40:27;;;;;;;28.17;16.63;;;4.20;80.80;;;;;;5088760;28;20493;-75
2022/03/08 02:42:53;;;;;;;27.77;17.30;;;4.10;81.70;;;;;;5091027;28;20136;-76
2022/03/08 02:45:21;;;;;;;29.65;18.02;;;4.10;82.00;;;;;;5088597;28;20474;-76
2022/03/08 02:47:47;;;;;;;26.08;15.93;;;4.00;81.60;;;;;;5088434;28;20032;-76
2022/03/08 02:50:14;;;;;;;30.63;17.83;;;4.10;80.10;;;;;;5098199;28;20072;-76
2022/03/08 02:52:42;;;;;;;25.65;15.82;;;4.10;80.20;;;;;;5089660;28;20408;-76
2022/03/08 02:55:09;;;;;;;25.15;15.02;;;4.00;79.80;;;;;;5090254;28;20606;-76
2022/03/08 02:57:35;;;;;;;27.88;17.10;;;4.00;79.90;;;;;;5091413;28;20032;-76
2022/03/08 03:00:02;;;;;;;33.30;17.13;;;4.00;79.90;;;;;;5089722;28;20036;-76
2022/03/08 03:02:27;;;;;;;33.58;17.38;;;4.00;79.80;;;;;;5088903;28;20047;-76
2022/03/08 03:04:53;;;;;;;29.48;17.48;;;4.00;80.00;;;;;;5091938;28;20028;-76
2022/03/08 03:07:23;;;;;;;32.92;18.67;;;3.90;79.70;;;;;;5090204;28;20035;-76
2022/03/08 03:09:50;;;;;;;31.25;16.52;;;4.00;79.90;;;;;;5091382;28;20389;-76
2022/03/08 03:12:16;;;;;;;30.58;17.98;;;3.90;80.10;;;;;;5089682;28;20024;-76
2022/03/08 03:14:42;;;;;;;30.52;17.13;;;4.00;80.10;;;;;;5091192;28;20438;-76
2022/03/08 03:17:08;;;;;;;28.30;17.33;;;3.90;80.00;;;;;;5090759;28;20058;-76
2022/03/08 03:19:33;;;;;;;29.02;16.40;;;3.90;79.80;;;;;;5090452;28;20378;-76
2022/03/08 03:21:59;;;;;;;28.40;16.33;;;3.90;80.10;;;;;;5084022;28;20044;-76
2022/03/08 03:24:25;;;;;;;31.48;18.20;;;3.90;80.30;;;;;;5090724;28;20067;-76
2022/03/08 03:26:50;;;;;;;29.30;17.52;;;3.80;80.00;;;;;;5089362;28;20040;-76
2022/03/08 03:29:16;;;;;;;31.52;18.63;;;3.90;80.10;;;;;;5089927;28;20134;-77
2022/03/08 03:31:42;;;;;;;31.52;17.58;;;3.80;80.00;;;;;;5086958;28;20052;-76
2022/03/08 03:34:07;;;;;;;30.25;17.77;;;3.80;79.90;;;;;;5090954;28;20066;-76
2022/03/08 03:36:33;;;;;;;30.30;17.45;;;3.90;80.00;;;;;;5089068;28;20054;-76
2022/03/08 03:38:59;;;;;;;27.15;16.40;;;3.80;79.90;;;;;;5090302;28;20072;-77
2022/03/08 03:41:24;;;;;;;33.42;18.45;;;3.70;79.80;;;;;;5088703;28;20032;-76
2022/03/08 03:43:50;;;;;;;28.88;16.67;;;3.70;80.00;;;;;;5087967;28;20104;-75
2022/03/08 03:46:16;;;;;;;28.48;16.33;;;3.80;80.00;;;;;;5089473;28;20115;-76
2022/03/08 03:48:42;;;;;;;27.50;16.33;;;3.70;80.10;;;;;;5089491;28;20086;-76
2022/03/08 03:51:08;;;;;;;32.55;17.85;;;3.70;80.00;;;;;;5087634;28;20032;-76
2022/03/08 03:53:33;;;;;;;31.00;18.83;;;3.70;79.90;;;;;;5086675;28;20085;-76
2022/03/08 03:55:59;;;;;;;28.73;16.90;;;3.70;79.90;;;;;;5090369;28;20024;-77
2022/03/08 03:58:25;;;;;;;32.33;17.98;;;3.60;79.60;;;;;;5090349;28;20479;-76
2022/03/08 04:00:50;;;;;;;29.38;17.38;;;3.70;80.00;;;;;;5087307;28;20044;-75
2022/03/08 04:03:18;;;;;;;29.42;16.90;;;3.70;79.80;;;;;;5081098;28;20097;-75
2022/03/08 04:05:45;;;;;;;29.92;17.05;;;3.70;80.00;;;;;;5080925;28;20031;-75
2022/03/08 04:08:11;;;;;;;33.80;17.98;;;3.70;80.00;;;;;;5082176;28;20067;-76
2022/03/08 04:10:37;;;;;;;30.92;18.02;;;3.80;80.10;;;;;;5080062;28;20064;-75
2022/03/08 04:13:03;;;;;;;34.03;17.67;;;3.70;79.90;;;;;;5082504;28;20028;-75
2022/03/08 04:15:29;;;;;;;31.65;18.55;;;3.70;79.90;;;;;;5082854;28;20039;-76
2022/03/08 04:17:55;;;;;;;31.10;18.13;;;3.60;80.00;;;;;;5080250;28;20070;-75
2022/03/08 04:20:21;;;;;;;29.77;17.55;;;3.60;80.00;;;;;;5085291;28;20093;-75
2022/03/08 04:22:46;;;;;;;33.58;18.10;;;3.60;80.20;;;;;;5086070;28;20097;-75
2022/03/08 04:25:12;;;;;;;29.52;17.17;;;3.60;80.60;;;;;;5083493;28;20032;-75
2022/03/08 04:27:38;;;;;;;37.05;19.65;;;3.60;80.40;;;;;;5083465;28;20036;-76
2022/03/08 04:30:06;;;;;;;32.35;18.23;;;3.60;80.30;;;;;;5083368;28;20062;-76
2022/03/08 04:32:32;;;;;;;29.40;16.42;;;3.60;80.30;;;;;;5085685;28;20564;-75
2022/03/08 04:34:57;;;;;;;32.70;17.90;;;3.60;80.60;;;;;;5082780;28;20075;-75
2022/03/08 04:37:23;;;;;;;33.30;18.42;;;3.50;80.50;;;;;;5081440;28;20028;-75
2022/03/08 04:39:49;;;;;;;30.05;18.15;;;3.50;80.40;;;;;;5086686;28;20032;-75
2022/03/08 04:42:14;;;;;;;31.70;18.27;;;3.60;80.60;;;;;;5083121;28;20131;-75
2022/03/08 04:44:40;;;;;;;33.78;19.77;;;3.60;80.60;;;;;;5081740;28;20040;-75
2022/03/08 04:47:06;;;;;;;31.98;17.08;;;3.60;80.30;;;;;;5080351;28;20039;-75
2022/03/08 04:49:31;;;;;;;29.13;17.00;;;3.60;80.80;;;;;;5082610;28;20032;-75
2022/03/08 04:51:57;;;;;;;28.98;17.77;;;3.60;80.60;;;;;;5080293;28;20020;-75
2022/03/08 04:54:23;;;;;;;33.13;18.27;;;3.50;80.20;;;;;;5085147;28;20047;-75
2022/03/08 04:56:48;;;;;;;27.95;16.27;;;3.50;80.50;;;;;;5081789;28;20428;-75
2022/03/08 04:59:14;;;;;;;27.90;15.90;;;3.50;80.50;;;;;;5083448;28;20505;-75
2022/03/08 05:01:39;;;;;;;34.03;17.55;;;3.40;80.90;;;;;;5079534;28;20086;-75
2022/03/08 05:04:05;;;;;;;28.27;17.73;;;3.50;80.70;;;;;;5079639;28;20070;-75
2022/03/08 05:06:31;;;;;;;29.90;17.88;;;3.50;80.00;;;;;;5080070;28;20036;-75
2022/03/08 05:08:57;;;;;;;28.10;16.77;;;3.50;80.80;;;;;;5080538;28;20042;-75
2022/03/08 05:11:22;;;;;;;31.52;16.67;;;3.50;80.80;;;;;;5081398;28;20034;-75
2022/03/08 05:13:48;;;;;;;28.55;16.77;;;3.40;81.00;;;;;;5080973;28;20412;-75
2022/03/08 05:16:14;;;;;;;27.55;16.98;;;3.40;80.70;;;;;;5080972;28;20039;-76
2022/03/08 05:18:40;;;;;;;29.52;17.92;;;3.40;80.60;;;;;;5073986;28;20097;-75
2022/03/08 05:21:05;;;;;;;32.05;17.42;;;3.30;80.60;;;;;;5080911;28;20100;-75
2022/03/08 05:23:31;;;;;;;28.60;16.80;;;3.30;80.80;;;;;;5081515;28;20100;-75
2022/03/08 05:25:57;;;;;;;27.15;17.00;;;3.30;80.70;;;;;;5078968;28;20032;-75
2022/03/08 05:28:23;;;;;;;30.33;16.52;;;3.30;80.50;;;;;;5080578;28;20090;-75
2022/03/08 05:30:50;;;;;;;30.17;18.20;;;3.40;81.00;;;;;;5079010;28;20030;-75
2022/03/08 05:33:16;;;;;;;31.20;17.88;;;3.30;80.60;;;;;;5078977;28;20032;-75
2022/03/08 05:35:42;;;;;;;33.75;16.95;;;3.30;80.70;;;;;;5076424;28;20036;-75
2022/03/08 05:38:08;;;;;;;30.88;16.10;;;3.30;81.00;;;;;;5079548;28;20440;-75
2022/03/08 05:40:33;;;;;;;29.13;16.65;;;3.30;81.20;;;;;;5080142;28;20511;-75
2022/03/08 05:43:01;;;;;;;30.50;16.38;;;3.30;81.00;;;;;;5082448;28;20080;-75
2022/03/08 05:45:27;;;;;;;32.13;17.10;;;3.30;81.00;;;;;;5068632;28;20032;-75
2022/03/08 05:47:53;;;;;;;29.65;16.95;;;3.30;80.90;;;;;;5066087;28;20199;-75
2022/03/08 05:50:18;;;;;;;28.08;17.25;;;3.20;81.30;;;;;;5066584;28;20067;-75
2022/03/08 05:52:44;;;;;;;26.08;15.60;;;3.30;81.60;;;;;;5080894;28;20063;-75
2022/03/08 05:55:10;;;;;;;31.48;17.20;;;3.20;81.20;;;;;;5084733;28;20504;-75
2022/03/08 05:57:36;;;;;;;30.10;16.98;;;3.20;81.30;;;;;;5082582;28;20056;-75
2022/03/08 06:00:02;;;;;;;29.80;16.88;;;3.20;81.60;;;;;;5086386;28;20058;-75
2022/03/08 06:02:28;;;;;;;29.52;18.42;;;3.20;82.00;;;;;;5089997;28;20047;-75
2022/03/08 06:04:53;;;;;;;33.10;17.77;;;3.30;81.40;;;;;;5085838;28;20032;-75
2022/03/08 06:07:21;;;;;;;29.55;17.45;;;3.30;81.20;;;;;;5083662;28;20119;-75
2022/03/08 06:09:47;;;;;;;35.15;18.30;;;3.40;81.30;;;;;;5084301;28;20027;-75
2022/03/08 06:12:13;;;;;;;34.97;18.55;;;3.30;81.20;;;;;;5082658;28;20082;-75
2022/03/08 06:14:38;;;;;;;34.05;19.88;;;3.30;81.40;;;;;;5083762;28;20458;-75
2022/03/08 06:17:06;;;;;;;33.00;17.73;;;3.30;81.00;;;;;;5078911;28;20131;-75
2022/03/08 06:19:36;;;;;;;32.88;17.70;;;3.30;81.10;;;;;;5083540;28;20058;-75
2022/03/08 06:22:02;;;;;;;35.05;18.88;;;3.30;81.30;;;;;;5084294;28;20040;-75
2022/03/08 06:24:27;;;;;;;30.70;16.35;;;3.40;81.40;;;;;;5084088;28;20028;-75
2022/03/08 06:26:53;;;;;;;30.60;18.00;;;3.40;81.30;;;;;;5080747;28;20101;-75
2022/03/08 06:29:19;;;;;;;29.27;17.25;;;3.40;81.60;;;;;;5085972;28;20498;-75
2022/03/08 06:31:44;;;;;;;27.98;17.50;;;3.40;81.70;;;;;;5086571;28;20453;-75
2022/03/08 06:34:10;;;;;;;34.67;19.10;;;3.50;82.10;;;;;;5086285;28;20189;-75
2022/03/08 06:36:36;;;;;;;35.28;17.95;;;3.50;81.90;;;;;;5084093;28;20492;-75
2022/03/08 06:39:03;;;;;;;34.15;18.08;;;3.50;82.10;;;;;;5087498;28;20057;-75
2022/03/08 06:41:29;;;;;;;35.20;17.10;;;3.50;82.10;;;;;;5081976;28;20071;-76
2022/03/08 06:43:55;;;;;;;31.92;18.20;;;3.40;82.40;;;;;;5087660;28;20075;-75
2022/03/08 06:46:20;;;;;;;29.48;17.83;;;3.40;83.30;;;;;;5078450;28;20039;-76
2022/03/08 06:48:46;;;;;;;33.30;18.52;;;3.40;83.40;;;;;;5072700;28;20028;-75
2022/03/08 06:51:13;;;;;;;33.30;18.35;;;3.70;83.00;;;;;;5069283;28;20143;-75
2022/03/08 06:53:39;;;;;;;28.00;17.15;;;3.50;82.40;;;;;;5067131;28;20776;-74
2022/03/08 06:56:05;;;;;;;33.80;18.33;;;3.40;83.00;;;;;;5067854;28;20036;-75
2022/03/08 06:58:30;;;;;;;33.53;18.83;;;3.40;83.30;;;;;;5074718;28;20027;-75
2022/03/08 07:00:56;;;;;;;33.75;21.05;;;3.40;83.80;;;;;;5076995;28;20560;-75
2022/03/08 07:03:22;;;;;;;34.40;17.95;;;3.40;84.90;;;;;;5078372;28;20047;-75
2022/03/08 07:05:48;;;;;;;33.67;19.02;;;3.30;84.10;;;;;;5084167;28;20059;-75
2022/03/08 07:08:13;;;;;;;33.40;16.92;;;3.30;83.60;;;;;;5085717;28;20099;-75
2022/03/08 07:10:39;;;;;;;32.22;18.90;;;3.40;83.70;;;;;;5082988;28;20055;-76
2022/03/08 07:13:05;;;;;;;31.63;18.20;;;3.60;83.90;;;;;;5078625;28;20097;-75
2022/03/08 07:15:31;;;;;;;35.85;18.73;;;3.70;83.60;;;;;;5084135;28;20078;-75
2022/03/08 07:17:56;;;;;;;30.65;17.35;;;3.80;83.10;;;;;;5070951;28;20101;-75
2022/03/08 07:20:23;;;;;;;33.38;19.33;;;3.80;83.30;;;;;;5079305;28;20024;-75
2022/03/08 07:22:48;;;;;;;33.95;19.13;;;3.80;84.70;;;;;;5084754;28;20044;-75
2022/03/08 07:25:15;;;;;;;36.13;19.23;;;3.80;84.30;;;;;;5081507;28;20036;-75
2022/03/08 07:27:40;;;;;;;37.05;20.17;;;3.80;84.30;;;;;;5082575;28;20486;-75
2022/03/08 07:30:07;;;;;;;38.97;20.30;;;3.80;83.30;;;;;;5078079;28;20043;-75
2022/03/08 07:32:33;;;;;;;34.08;18.80;;;3.90;82.80;;;;;;5081773;28;20028;-75
2022/03/08 07:34:59;;;;;;;34.95;19.55;;;4.00;83.30;;;;;;5068941;28;20654;-75
2022/03/08 07:37:25;;;;;;;35.70;19.27;;;4.00;84.10;;;;;;5069068;28;20130;-75
2022/03/08 07:39:51;;;;;;;39.72;19.85;;;4.00;84.40;;;;;;5063747;28;20039;-75
2022/03/08 07:42:17;;;;;;;37.25;20.25;;;3.90;84.60;;;;;;5062894;28;20066;-75
2022/03/08 07:44:42;;;;;;;36.22;20.58;;;4.00;84.80;;;;;;5067226;28;20051;-75
2022/03/08 07:47:11;;;;;;;35.33;19.13;;;4.10;84.80;;;;;;5081346;28;20024;-76
2022/03/08 07:49:37;;;;;;;34.50;19.13;;;4.10;84.30;;;;;;5085184;28;20062;-75
2022/03/08 07:52:03;;;;;;;30.77;17.92;;;4.20;83.30;;;;;;5076592;28;20033;-74
2022/03/08 07:54:28;;;;;;;35.47;19.15;;;4.10;82.20;;;;;;5081377;28;20358;-74
2022/03/08 07:56:54;;;;;;;29.65;17.83;;;4.10;82.10;;;;;;5081633;28;20042;-74
2022/03/08 07:59:20;;;;;;;33.70;18.23;;;4.20;82.40;;;;;;5082013;28;20040;-75
2022/03/08 08:01:45;;;;;;;28.52;17.73;;;4.20;82.10;;;;;;5084260;28;20035;-74
2022/03/08 08:04:11;;;;;;;34.60;19.50;;;4.20;83.00;;;;;;5083359;28;20047;-74
2022/03/08 08:06:37;;;;;;;34.38;20.02;;;4.20;83.10;;;;;;5079640;28;20065;-74
2022/03/08 08:09:03;;;;;;;34.63;18.60;;;4.30;83.10;;;;;;5077468;28;20033;-74
2022/03/08 08:11:29;;;;;;;33.47;18.58;;;4.30;82.60;;;;;;5081343;28;20028;-74
2022/03/08 08:13:54;;;;;;;33.45;19.50;;;4.30;82.60;;;;;;5082298;28;20028;-73
2022/03/08 08:16:20;;;;;;;32.00;19.42;;;4.40;82.50;;;;;;5080948;28;20028;-73
2022/03/08 08:18:46;;;;;;;31.98;18.65;;;4.50;82.40;;;;;;5081393;28;20589;-74
2022/03/08 08:21:12;;;;;;;34.58;18.33;;;4.50;81.30;;;;;;5066992;28;20183;-74
2022/03/08 08:23:38;;;;;;;35.05;21.45;;;4.50;82.90;;;;;;5063882;28;20134;-75
2022/03/08 08:26:03;;;;;;;41.13;22.17;;;4.60;83.10;;;;;;5064044;28;20126;-74
2022/03/08 08:28:29;;;;;;;38.92;19.95;;;4.60;84.10;;;;;;5077796;28;20032;-73
2022/03/08 08:30:55;;;;;;;40.63;20.58;;;4.70;84.40;;;;;;5080470;28;20027;-72
2022/03/08 08:33:20;;;;;;;32.85;18.67;;;4.70;83.70;;;;;;5081637;28;20466;-73
2022/03/08 08:35:46;;;;;;;29.63;16.38;;;4.60;82.80;;;;;;5083259;28;20447;-73
2022/03/08 08:38:12;;;;;;;33.03;18.35;;;4.50;80.70;;;;;;5085697;28;20409;-71
2022/03/08 08:40:37;;;;;;;36.58;18.70;;;4.60;79.20;;;;;;5085581;28;20031;-72
2022/03/08 08:43:05;;;;;;;27.40;17.15;;;4.50;78.10;;;;;;5084724;28;20486;-71
2022/03/08 08:45:31;;;;;;;28.20;16.02;;;4.50;78.80;;;;;;5085152;28;20104;-72
2022/03/08 08:47:58;;;;;;;30.08;15.05;;;4.60;78.80;;;;;;5087176;28;20591;-72
2022/03/08 08:50:24;;;;;;;28.58;15.25;;;4.80;81.30;;;;;;5086333;28;20026;-75
2022/03/08 08:52:50;;;;;;;22.95;14.43;;;4.70;80.90;;;;;;5086409;28;20036;-71
2022/03/08 08:55:16;;;;;;;30.48;15.85;;;4.90;78.10;;;;;;5086622;28;20028;-74
2022/03/08 08:57:41;;;;;;;31.05;16.83;;;4.70;77.80;;;;;;5083641;28;20404;-73
2022/03/08 09:00:09;;;;;;;27.73;15.77;;;4.60;79.40;;;;;;5079996;28;20055;-72
2022/03/08 09:02:35;;;;;;;28.88;16.55;;;5.10;79.10;;;;;;5083504;28;20036;-73
2022/03/08 09:05:01;;;;;;;25.52;14.20;;;4.80;79.40;;;;;;5085192;28;20037;-73
2022/03/08 09:07:26;;;;;;;22.55;14.25;;;4.50;78.30;;;;;;5084439;28;20028;-73
2022/03/08 09:09:52;;;;;;;21.58;13.05;;;4.40;77.20;;;;;;5085671;28;20024;-73
2022/03/08 09:12:18;;;;;;;25.92;14.07;;;4.50;77.90;;;;;;5082996;28;20620;-73
2022/03/08 09:14:43;;;;;;;24.90;14.00;;;4.50;77.70;;;;;;5082901;28;20044;-73
2022/03/08 09:17:09;;;;;;;26.35;14.75;;;4.60;78.40;;;;;;5070934;28;20024;-75
2022/03/08 09:19:35;;;;;;;24.65;13.07;;;4.50;77.60;;;;;;5085636;28;20028;-75
2022/03/08 09:22:01;;;;;;;30.17;14.40;;;4.30;77.40;;;;;;5085461;28;20036;-71
2022/03/08 09:24:26;;;;;;;27.65;14.82;;;4.50;78.00;;;;;;5086423;28;21927;-73
2022/03/08 09:26:52;;;;;;;29.15;16.42;;;4.50;77.60;;;;;;5083795;28;20043;-73
2022/03/08 09:29:18;;;;;;;26.42;15.65;;;4.60;79.10;;;;;;5085517;28;20039;-73
2022/03/08 09:31:44;;;;;;;27.67;15.07;;;4.70;78.70;;;;;;5086107;28;20370;-74
2022/03/08 09:34:10;;;;;;;32.65;15.15;;;4.80;78.80;;;;;;5084528;28;20032;-73
2022/03/08 09:36:37;;;;;;;31.55;19.00;;;5.00;79.30;;;;;;5083571;28;20773;-73
2022/03/08 09:39:04;;;;;;;25.35;14.85;;;4.90;79.40;;;;;;5085610;28;20594;-73
2022/03/08 09:41:30;;;;;;;29.95;15.25;;;4.90;79.10;;;;;;5085729;28;20120;-74
2022/03/08 09:43:55;;;;;;;24.20;12.65;;;4.90;79.10;;;;;;5086206;28;20111;-74
2022/03/08 09:46:21;;;;;;;22.05;12.75;;;4.90;77.80;;;;;;5090839;28;20613;-72
2022/03/08 09:48:49;;;;;;;21.08;13.07;;;4.90;77.50;;;;;;5083580;28;20040;-73
2022/03/08 09:51:15;;;;;;;24.77;13.00;;;5.00;78.10;;;;;;5083391;28;20020;-73
2022/03/08 09:53:43;;;;;;;20.65;12.35;;;5.10;77.30;;;;;;5086234;28;20180;-73
2022/03/08 09:56:08;;;;;;;20.05;12.13;;;5.10;76.60;;;;;;5083395;28;20024;-72
2022/03/08 09:58:35;;;;;;;22.63;11.40;;;5.20;76.70;;;;;;5084686;28;20488;-73
2022/03/08 10:01:01;;;;;;;20.23;12.10;;;5.30;75.90;;;;;;5078812;28;20052;-72
2022/03/08 10:03:35;;;;;;;18.20;11.90;;;5.20;74.60;;;;;;5082274;28;20077;-73
2022/03/08 10:06:03;;;;;;;22.15;11.18;;;5.20;74.60;;;;;;5084403;28;20061;-72
2022/03/08 10:08:29;;;;;;;19.83;11.55;;;5.10;75.30;;;;;;5083996;28;20036;-72
2022/03/08 10:11:00;;;;;;;17.52;10.65;;;5.20;75.40;;;;;;5084662;28;20378;-72
2022/03/08 10:13:32;;;;;;;19.38;11.90;;;5.20;75.40;;;;;;5071572;28;20032;-73
2022/03/08 10:16:15;;;;;;;17.05;11.05;;;5.30;74.10;;;;;;5077497;28;20086;-72
2022/03/08 10:18:45;;;;;;;25.85;12.85;;;5.40;75.00;;;;;;5079531;28;20511;-72
2022/03/08 10:21:34;;;;;;;21.17;11.82;;;5.50;74.70;;;;;;5084351;28;20138;-72
2022/03/08 10:24:23;;;;;;;21.63;12.23;;;5.80;74.60;;;;;;5085764;28;20093;-73
2022/03/08 10:27:09;;;;;;;17.55;11.13;;;5.90;73.30;;;;;;5078524;28;20106;-72
2022/03/08 10:29:39;;;;;;;22.50;12.88;;;5.70;74.30;;;;;;5078036;28;20986;-72
2022/03/08 10:32:08;;;;;;;21.77;12.10;;;5.90;73.90;;;;;;5069773;28;20070;-73
2022/03/08 10:34:36;;;;;;;19.70;11.50;;;6.00;73.40;;;;;;5085168;28;20414;-72
2022/03/08 10:37:07;;;;;;;18.98;10.80;;;6.00;73.80;;;;;;5075289;28;20035;-72
2022/03/08 10:39:33;;;;;;;57.45;13.98;;;6.00;74.10;;;;;;5072111;28;20111;-72
2022/03/08 10:42:00;;;;;;;45.15;24.75;;;6.10;74.10;;;;;;5076763;28;20040;-72
2022/03/08 10:44:37;;;;;;;29.13;18.10;;;6.20;73.70;;;;;;5086329;28;20024;-73
2022/03/08 10:47:13;;;;;;;34.22;17.52;;;6.20;72.90;;;;;;5087802;28;20032;-72
2022/03/08 10:49:48;;;;;;;24.95;13.82;;;6.20;73.10;;;;;;5088013;28;20486;-72
2022/03/08 10:52:13;;;;;;;;;;;6.30;73.20;;;;;;5085902;28;20059;-72
2022/03/08 10:54:39;;;;;;;23.55;12.18;;;6.20;73.80;;;;;;5087585;28;19946;-73
2022/03/08 10:57:04;;;;;;;20.55;11.73;;;6.20;72.90;;;;;;5086569;28;20044;-72
2022/03/08 10:59:31;;;;;;;21.42;11.85;;;6.10;73.50;;;;;;5087123;28;20056;-72
2022/03/08 11:01:57;;;;;;;21.90;11.05;;;6.00;72.90;;;;;;5087534;28;20050;-73
2022/03/08 11:04:24;;;;;;;32.17;18.52;;;6.20;74.00;;;;;;5087762;28;20032;-73
2022/03/08 11:06:52;;;;;;;44.70;24.05;;;6.20;73.90;;;;;;5087605;28;20470;-73
2022/03/08 11:09:19;;;;;;;27.88;16.55;;;6.20;73.30;;;;;;5088624;28;20108;-72
2022/03/08 11:11:45;;;;;;;24.10;14.32;;;6.20;73.30;;;;;;5088151;28;20043;-72
2022/03/08 11:14:12;;;;;;;26.58;14.60;;;6.30;73.20;;;;;;5084992;28;20079;-71
2022/03/08 11:16:39;;;;;;;22.83;14.32;;;6.20;73.30;;;;;;5082834;28;20036;-74
2022/03/08 11:19:05;;;;;;;25.08;13.05;;;6.40;73.20;;;;;;5087644;28;20040;-74
2022/03/08 11:21:33;;;;;;;21.20;12.60;;;6.70;74.20;;;;;;5088238;28;20054;-74
2022/03/08 11:24:03;;;;;;;26.15;13.40;;;7.00;73.20;;;;;;5084984;28;20417;-73
2022/03/08 11:26:29;;;;;;;21.98;13.07;;;6.90;72.70;;;;;;5088226;28;20131;-74
2022/03/08 11:28:56;;;;;;;24.42;18.20;;;7.10;72.80;;;;;;5086922;28;20120;-74
2022/03/08 11:31:28;;;;;;;23.08;14.88;;;7.30;73.40;;;;;;5085469;28;20123;-73
2022/03/08 11:34:06;;;;;;;24.52;15.15;;;7.50;73.00;;;;;;5081737;28;20032;-72
2022/03/08 11:36:33;;;;;;;21.90;13.63;;;7.60;72.50;;;;;;5077438;28;20086;-72
2022/03/08 11:39:14;;;;;;;21.65;13.30;;;7.60;72.20;;;;;;5086502;28;20111;-72
2022/03/08 11:41:40;;;;;;;19.67;13.05;;;7.90;71.90;;;;;;5086753;28;20028;-73
2022/03/08 11:44:06;;;;;;;22.58;14.90;;;7.80;71.40;;;;;;5087954;28;20499;-72
2022/03/08 11:46:32;;;;;;;28.55;13.85;;;7.50;71.00;;;;;;5086901;28;20131;-72
2022/03/08 11:49:03;;;;;;;40.75;14.55;;;7.80;72.70;;;;;;5086144;28;22242;-72
2022/03/08 11:51:31;;;;;;;71.38;63.88;;;7.80;71.30;;;;;;5085689;28;20028;-72
2022/03/08 11:54:26;;;;;;;20.55;14.27;;;7.80;71.40;;;;;;5087748;28;20138;-74
2022/03/08 11:56:52;;;;;;;;;;;7.70;71.40;;;;;;5077825;28;20126;-73
2022/03/08 11:59:19;;;;;;;21.50;13.50;;;8.10;72.10;;;;;;5085584;28;19916;-74
2022/03/08 12:01:44;;;;;;;26.25;16.55;;;8.20;70.70;;;;;;5086139;28;20043;-74
2022/03/08 12:04:13;;;;;;;32.80;19.10;;;8.50;71.70;;;;;;5086215;28;20153;-74
2022/03/08 12:06:41;;;;;;;31.08;16.38;;;8.40;71.50;;;;;;5082492;28;20032;-74
2022/03/08 12:09:11;;;;;;;24.38;14.85;;;8.30;70.70;;;;;;5085165;28;20035;-73
2022/03/08 12:11:39;;;;;;;25.08;14.60;;;8.10;71.20;;;;;;5086789;28;20501;-73
2022/03/08 12:14:16;;;;;;;22.55;14.10;;;8.20;71.30;;;;;;5086420;28;20134;-74
2022/03/08 12:16:48;;;;;;;27.77;14.75;;;8.40;71.70;;;;;;5078881;28;20053;-72
2022/03/08 12:19:40;;;;;;;25.08;14.95;;;8.10;70.40;;;;;;5086095;28;20085;-72
2022/03/08 12:22:15;;;;;;;26.85;15.05;;;8.10;70.90;;;;;;5081951;28;20044;-73
2022/03/08 12:24:45;;;;;;;24.88;15.25;;;7.90;70.20;;;;;;5082243;28;20032;-72
2022/03/08 12:27:12;;;;;;;25.13;15.18;;;8.10;72.10;;;;;;5081884;28;20024;-72
2022/03/08 12:29:51;;;;;;;25.65;14.98;;;8.40;70.40;;;;;;5084993;28;20482;-72
2022/03/08 12:32:33;;;;;;;26.95;16.25;;;8.50;70.40;;;;;;5086671;28;20024;-72
2022/03/08 12:35:11;;;;;;;165.95;67.20;;;8.80;70.00;;;;;;5086798;28;20039;-72
2022/03/08 12:37:38;;;;;;;28.30;16.65;;;8.80;69.00;;;;;;5086395;28;20043;-73